createdAt,value
2022-08-26T00:02:20.757Z,100975.38
2022-08-26T00:05:13.218Z,100979.63
2022-08-26T00:08:03.185Z,100978.47
2022-08-26T00:10:55.253Z,100976.03
2022-08-26T00:13:47.992Z,100976.59
2022-08-26T00:16:47.886Z,100974.84
2022-08-26T00:19:39.548Z,100972.88
2022-08-26T00:22:30.332Z,100974.13
2022-08-26T00:25:20.226Z,100970.75
2022-08-26T00:28:11.027Z,100967.84
2022-08-26T00:31:00.974Z,100973.50
2022-08-26T00:33:54.030Z,100971.38
2022-08-26T00:36:46.293Z,100971.88
2022-08-26T00:39:36.859Z,100966.50
2022-08-26T00:42:26.579Z,100971.63
2022-08-26T00:45:17.277Z,100966.94
2022-08-26T00:48:08.411Z,100961.66
2022-08-26T00:51:11.133Z,100958.09
2022-08-26T00:54:10.788Z,100958.00
2022-08-26T00:57:16.381Z,100961.16
2022-08-26T01:00:12.854Z,100957.06
2022-08-26T01:03:05.239Z,100958.25
2022-08-26T01:06:01.222Z,100955.81
2022-08-26T01:08:53.570Z,100961.75
2022-08-26T01:11:44.134Z,100950.56
2022-08-26T01:14:37.032Z,100949.13
2022-08-26T01:17:27.078Z,100954.22
2022-08-26T01:20:32.835Z,100959.06
2022-08-26T01:23:22.949Z,100959.78
2022-08-26T01:26:26.712Z,100950.72
2022-08-26T01:29:20.202Z,100966.34
2022-08-26T01:32:12.340Z,100958.94
2022-08-26T01:35:02.152Z,100961.50
2022-08-26T01:37:53.692Z,100945.94
2022-08-26T01:40:47.311Z,100952.84
2022-08-26T01:43:40.042Z,100948.34
2022-08-26T01:46:30.466Z,100936.69
2022-08-26T01:49:21.239Z,100935.84
2022-08-26T01:52:14.616Z,100935.03
2022-08-26T01:55:07.560Z,100942.38
2022-08-26T01:58:00.561Z,100929.28
2022-08-26T02:00:51.479Z,100934.31
2022-08-26T02:04:06.290Z,100940.13
2022-08-26T02:06:57.573Z,100946.44
2022-08-26T02:09:48.563Z,100939.34
2022-08-26T02:12:38.493Z,100934.38
2022-08-26T02:15:28.716Z,100933.13
2022-08-26T02:18:18.675Z,100934.81
2022-08-26T02:21:09.899Z,100939.03
2022-08-26T02:24:10.841Z,100944.94
2022-08-26T02:27:02.580Z,100947.50
2022-08-26T02:30:02.981Z,100941.69
2022-08-26T02:32:53.496Z,100948.78
2022-08-26T02:35:42.548Z,100944.41
2022-08-26T02:38:32.910Z,100937.56
2022-08-26T02:41:23.113Z,100937.56
2022-08-26T02:44:13.170Z,100940.88
2022-08-26T02:47:02.934Z,100925.03
2022-08-26T02:49:53.681Z,100925.44
2022-08-26T02:52:49.234Z,100915.69
2022-08-26T02:55:40.815Z,100916.31
2022-08-26T02:58:31.486Z,100905.06
2022-08-26T03:01:26.385Z,100908.66
2022-08-26T03:04:16.217Z,100907.41
2022-08-26T03:07:07.008Z,100907.41
2022-08-26T03:09:56.885Z,100905.34
2022-08-26T03:12:48.169Z,100903.47
2022-08-26T03:15:37.717Z,100901.78
2022-08-26T03:18:27.818Z,100895.72
2022-08-26T03:21:19.549Z,100903.44
2022-08-26T03:24:12.627Z,100886.34
2022-08-26T03:27:05.797Z,100881.38
2022-08-26T03:30:15.192Z,100886.78
2022-08-26T03:33:06.480Z,100876.31
2022-08-26T03:35:57.105Z,100875.13
2022-08-26T03:38:46.670Z,100859.44
2022-08-26T03:41:38.048Z,100861.97
2022-08-26T03:44:30.854Z,100846.47
2022-08-26T03:47:21.601Z,100859.63
2022-08-26T03:50:15.456Z,100853.59
2022-08-26T03:53:07.478Z,100833.56
2022-08-26T03:56:02.639Z,100835.03
2022-08-26T03:58:52.344Z,100827.06
2022-08-26T04:01:43.649Z,100819.09
2022-08-26T04:04:33.630Z,100802.81
2022-08-26T04:07:23.435Z,100795.91
2022-08-26T04:10:20.338Z,100786.53
2022-08-26T04:13:10.328Z,100783.63
2022-08-26T04:15:59.857Z,100787.81
2022-08-26T04:18:49.040Z,100778.63
2022-08-26T04:21:39.906Z,100772.00
2022-08-26T04:24:30.923Z,100760.09
2022-08-26T04:27:19.931Z,100749.91
2022-08-26T04:30:10.365Z,100753.22
2022-08-26T04:33:00.299Z,100747.84
2022-08-26T04:35:51.400Z,100740.50
2022-08-26T04:38:42.880Z,100732.56
2022-08-26T04:41:34.606Z,100720.88
2022-08-26T04:44:27.088Z,100718.19
2022-08-26T04:47:16.980Z,100718.22
2022-08-26T04:50:10.984Z,100725.75
2022-08-26T04:53:00.910Z,100717.41
2022-08-26T04:55:52.417Z,100723.69
2022-08-26T04:58:49.836Z,100721.59
2022-08-26T05:01:39.783Z,100728.69
2022-08-26T05:04:29.848Z,100713.25
2022-08-26T05:07:22.204Z,100706.16
2022-08-26T05:10:12.807Z,100702.19
2022-08-26T05:13:05.142Z,100703.44
2022-08-26T05:16:05.643Z,100685.44
2022-08-26T05:18:56.154Z,100686.91
2022-08-26T05:21:46.010Z,100676.91
2022-08-26T05:24:37.659Z,100668.91
2022-08-26T05:27:30.898Z,100668.94
2022-08-26T05:30:25.830Z,100671.00
2022-08-26T05:33:16.187Z,100663.13
2022-08-26T05:36:16.884Z,100678.59
2022-08-26T05:39:10.515Z,100670.66
2022-08-26T05:42:00.949Z,100672.13
2022-08-26T05:44:56.271Z,100673.59
2022-08-26T05:47:46.261Z,100668.41
2022-08-26T05:50:42.247Z,100664.41
2022-08-26T05:53:33.397Z,100670.28
2022-08-26T05:56:27.562Z,100664.00
2022-08-26T05:59:17.226Z,100653.78
2022-08-26T06:02:16.085Z,100657.75
2022-08-26T06:05:07.588Z,100648.16
2022-08-26T06:08:15.383Z,100647.34
2022-08-26T06:11:18.373Z,100642.97
2022-08-26T06:14:09.265Z,100629.78
2022-08-26T06:16:59.156Z,100627.25
2022-08-26T06:19:49.394Z,100625.94
2022-08-26T06:22:57.321Z,100625.75
2022-08-26T06:25:51.855Z,100621.16
2022-08-26T06:28:43.618Z,100612.78
2022-08-26T06:31:37.253Z,100610.06
2022-08-26T06:34:30.913Z,100621.72
2022-08-26T06:37:23.836Z,100622.59
2022-08-26T06:40:14.172Z,100620.88
2022-08-26T06:43:04.162Z,100640.22
2022-08-26T06:46:01.235Z,100638.72
2022-08-26T06:48:56.268Z,100639.53
2022-08-26T06:51:46.907Z,100631.84
2022-08-26T06:54:44.420Z,100640.41
2022-08-26T06:57:35.703Z,100634.63
2022-08-26T07:00:29.559Z,100625.44
2022-08-26T07:03:22.337Z,100627.31
2022-08-26T07:06:12.361Z,100631.97
2022-08-26T07:09:09.821Z,100636.88
2022-08-26T07:12:02.644Z,100627.50
2022-08-26T07:14:53.076Z,100624.66
2022-08-26T07:17:43.717Z,100615.13
2022-08-26T07:20:35.490Z,100605.91
2022-08-26T07:23:25.476Z,100616.66
2022-08-26T07:26:21.747Z,100605.03
2022-08-26T07:29:16.172Z,100612.72
2022-08-26T07:32:07.769Z,100617.25
2022-08-26T07:34:57.311Z,100619.25
2022-08-26T07:37:46.593Z,100612.31
2022-08-26T07:40:36.670Z,100610.34
2022-08-26T07:43:26.379Z,100610.78
2022-08-26T07:46:29.926Z,100604.41
2022-08-26T07:49:20.877Z,100595.50
2022-08-26T07:52:11.138Z,100590.56
2022-08-26T07:55:03.642Z,100595.66
2022-08-26T07:57:53.205Z,100609.41
2022-08-26T08:00:43.166Z,100611.78
2022-08-26T08:03:34.388Z,100619.88
2022-08-26T08:06:27.294Z,100624.09
2022-08-26T08:09:22.412Z,100625.38
2022-08-26T08:12:15.423Z,100630.00
2022-08-26T08:15:06.064Z,100644.47
2022-08-26T08:17:58.876Z,100651.84
2022-08-26T08:20:54.653Z,100663.41
2022-08-26T08:23:48.672Z,100675.34
2022-08-26T08:26:38.533Z,100695.00
2022-08-26T08:29:30.978Z,100698.78
2022-08-26T08:32:20.539Z,100714.25
2022-08-26T08:35:14.593Z,100716.78
2022-08-26T08:38:05.790Z,100725.16
2022-08-26T08:40:57.162Z,100733.13
2022-08-26T08:43:47.778Z,100719.13
2022-08-26T08:46:39.078Z,100715.16
2022-08-26T08:49:29.658Z,100713.94
2022-08-26T08:52:33.603Z,100717.50
2022-08-26T08:55:23.321Z,100703.13
2022-08-26T08:58:22.070Z,100701.22
2022-08-26T09:01:35.298Z,100702.50
2022-08-26T09:04:28.264Z,100694.38
2022-08-26T09:07:42.621Z,100706.88
2022-08-26T09:10:43.637Z,100697.69
2022-08-26T09:13:34.291Z,100695.03
2022-08-26T09:16:36.764Z,100690.22
2022-08-26T09:19:35.077Z,100696.28
2022-08-26T09:22:38.494Z,100701.47
2022-08-26T09:25:27.974Z,100708.59
2022-08-26T09:28:21.081Z,100699.84
2022-08-26T09:31:25.211Z,100698.38
2022-08-26T09:34:23.567Z,100698.78
2022-08-26T09:37:13.146Z,100706.16
2022-08-26T09:40:38.329Z,100715.75
2022-08-26T09:43:30.344Z,100739.94
2022-08-26T09:46:28.736Z,100750.16
2022-08-26T09:49:38.771Z,100770.38
2022-08-26T09:52:29.235Z,100791.25
2022-08-26T09:55:25.692Z,100807.91
2022-08-26T09:58:34.342Z,100814.53
2022-08-26T10:01:45.294Z,100807.47
2022-08-26T10:04:35.787Z,100808.47
2022-08-26T10:07:52.808Z,100799.50
2022-08-26T10:10:44.080Z,100808.69
2022-08-26T10:13:43.156Z,100816.09
2022-08-26T10:16:49.148Z,100815.69
2022-08-26T10:19:56.803Z,100815.25
2022-08-26T10:22:52.039Z,100805.22
2022-08-26T10:25:59.234Z,100801.06
2022-08-26T10:28:50.242Z,100799.34
2022-08-26T10:31:43.422Z,100801.66
2022-08-26T10:34:36.281Z,100811.84
2022-08-26T10:37:28.547Z,100831.38
2022-08-26T10:40:49.085Z,100840.94
2022-08-26T10:43:47.681Z,100855.50
2022-08-26T10:46:44.762Z,100860.44
2022-08-26T10:49:34.128Z,100868.31
2022-08-26T10:52:38.570Z,100867.94
2022-08-26T10:56:03.908Z,100873.28
2022-08-26T10:59:12.494Z,100859.34
2022-08-26T11:02:30.857Z,100862.81
2022-08-26T11:05:25.021Z,100854.25
2022-08-26T11:08:25.364Z,100860.44
2022-08-26T11:11:41.539Z,100864.81
2022-08-26T11:14:53.748Z,100863.94
2022-08-26T11:17:49.082Z,100878.06
2022-08-26T11:20:44.969Z,100875.56
2022-08-26T11:23:40.398Z,100890.97
2022-08-26T11:26:55.611Z,100889.28
2022-08-26T11:30:04.066Z,100891.59
2022-08-26T11:32:59.837Z,100897.16
2022-08-26T11:35:50.694Z,100898.91
2022-08-26T11:38:45.256Z,100907.03
2022-08-26T11:41:35.694Z,100907.22
2022-08-26T11:44:42.002Z,100906.00
2022-08-26T11:47:39.599Z,100907.03
2022-08-26T11:50:31.173Z,100908.88
2022-08-26T11:53:21.352Z,100915.16
2022-08-26T11:56:31.526Z,100913.66
2022-08-26T11:59:25.580Z,100914.91
2022-08-26T12:02:18.284Z,100904.13
2022-08-26T12:05:09.632Z,100903.00
2022-08-26T12:08:10.060Z,100910.78
2022-08-26T12:11:09.958Z,100917.00
2022-08-26T12:14:01.764Z,100901.88
2022-08-26T12:16:55.373Z,100910.25
2022-08-26T12:19:45.939Z,100912.94
2022-08-26T12:22:36.209Z,100909.00
2022-08-26T12:25:26.683Z,100907.78
2022-08-26T12:28:16.223Z,100920.28
2022-08-26T12:31:08.325Z,100928.16
2022-08-26T12:34:00.539Z,100929.38
2022-08-26T12:36:54.564Z,100937.94
2022-08-26T12:39:45.930Z,100935.47
2022-08-26T12:42:44.024Z,100937.56
2022-08-26T12:45:39.638Z,100943.75
2022-08-26T12:48:33.422Z,100947.72
2022-08-26T12:51:29.296Z,100942.97
2022-08-26T12:54:23.013Z,100952.38
2022-08-26T12:57:14.740Z,100953.78
2022-08-26T13:00:32.239Z,100955.72
2022-08-26T13:03:33.316Z,100957.78
2022-08-26T13:06:41.730Z,100982.38
2022-08-26T13:09:33.072Z,100982.94
2022-08-26T13:12:42.391Z,100989.47
2022-08-26T13:15:32.576Z,100990.63
2022-08-26T13:18:26.908Z,100985.22
2022-08-26T13:21:22.951Z,100996.03
2022-08-26T13:24:15.056Z,100999.41
2022-08-26T13:27:06.966Z,101014.09
2022-08-26T13:29:59.202Z,101015.50
2022-08-26T13:32:49.278Z,101018.59
2022-08-26T13:35:38.789Z,101014.22
2022-08-26T13:38:33.645Z,101013.75
2022-08-26T13:41:29.248Z,101015.00
2022-08-26T13:44:19.579Z,101007.25
2022-08-26T13:47:10.065Z,101008.69
2022-08-26T13:50:00.163Z,101019.75
2022-08-26T13:52:50.025Z,101006.88
2022-08-26T13:55:39.523Z,101023.97
2022-08-26T13:58:29.475Z,101027.69
2022-08-26T14:01:19.728Z,101023.06
2022-08-26T14:04:12.611Z,101031.97
2022-08-26T14:07:02.657Z,101029.22
2022-08-26T14:09:52.179Z,101036.31
2022-08-26T14:12:42.339Z,101025.88
2022-08-26T14:15:36.823Z,101014.69
2022-08-26T14:18:31.749Z,101015.91
2022-08-26T14:21:22.402Z,101004.44
2022-08-26T14:24:13.250Z,101007.06
2022-08-26T14:27:03.597Z,101007.25
2022-08-26T14:29:54.149Z,101004.56
2022-08-26T14:32:46.978Z,101003.44
2022-08-26T14:35:36.258Z,101000.34
2022-08-26T14:38:27.407Z,100999.28
2022-08-26T14:41:18.675Z,100992.38
2022-08-26T14:44:12.927Z,100996.84
2022-08-26T14:47:04.492Z,100998.25
2022-08-26T14:49:54.394Z,100992.28
2022-08-26T14:53:02.467Z,100999.28
2022-08-26T14:55:53.391Z,100997.69
2022-08-26T14:58:43.145Z,100995.56
2022-08-26T15:01:33.964Z,100984.53
2022-08-26T15:04:25.359Z,100984.91
2022-08-26T15:07:15.836Z,100983.25
2022-08-26T15:10:15.944Z,100965.09
2022-08-26T15:13:06.392Z,100969.94
2022-08-26T15:15:55.864Z,100957.63
2022-08-26T15:18:46.423Z,100958.66
2022-08-26T15:21:37.926Z,100956.34
2022-08-26T15:24:30.250Z,100945.91
2022-08-26T15:27:21.251Z,100940.91
2022-08-26T15:30:12.769Z,100941.72
2022-08-26T15:33:02.775Z,100938.59
2022-08-26T15:35:52.633Z,100933.56
2022-08-26T15:38:43.937Z,100932.81
2022-08-26T15:41:34.918Z,100921.34
2022-08-26T15:44:26.588Z,100928.16
2022-08-26T15:47:16.533Z,100918.28
2022-08-26T15:50:06.417Z,100917.81
2022-08-26T15:52:55.681Z,100919.41
2022-08-26T15:55:47.163Z,100912.06
2022-08-26T15:58:38.226Z,100906.38
2022-08-26T16:01:29.364Z,100891.66
2022-08-26T16:04:20.019Z,100887.75
2022-08-26T16:07:10.263Z,100880.31
2022-08-26T16:09:59.796Z,100875.44
2022-08-26T16:12:49.729Z,100883.19
2022-08-26T16:15:40.656Z,100884.41
2022-08-26T16:18:30.589Z,100876.94
2022-08-26T16:21:22.888Z,100872.56
2022-08-26T16:24:14.002Z,100885.03
2022-08-26T16:27:04.792Z,100874.22
2022-08-26T16:29:54.813Z,100868.00
2022-08-26T16:32:47.463Z,100879.34
2022-08-26T16:35:37.296Z,100872.38
2022-08-26T16:38:27.562Z,100867.81
2022-08-26T16:41:17.732Z,100867.44
2022-08-26T16:44:15.470Z,100869.22
2022-08-26T16:47:05.065Z,100861.50
2022-08-26T16:49:54.980Z,100865.75
2022-08-26T16:52:44.785Z,100867.44
2022-08-26T16:55:34.644Z,100860.19
2022-08-26T16:58:24.288Z,100853.50
2022-08-26T17:01:14.095Z,100847.63
2022-08-26T17:04:04.971Z,100843.81
2022-08-26T17:06:54.986Z,100840.09
2022-08-26T17:09:45.642Z,100838.06
2022-08-26T17:12:37.562Z,100844.47
2022-08-26T17:15:27.287Z,100841.13
2022-08-26T17:18:17.392Z,100836.75
2022-08-26T17:21:11.087Z,100826.31
2022-08-26T17:24:00.876Z,100834.13
2022-08-26T17:26:55.513Z,100833.50
2022-08-26T17:29:45.971Z,100835.38
2022-08-26T17:32:36.422Z,100822.38
2022-08-26T17:35:26.527Z,100815.31
2022-08-26T17:38:16.011Z,100819.31
2022-08-26T17:41:09.962Z,100809.91
2022-08-26T17:43:59.531Z,100813.28
2022-08-26T17:46:49.550Z,100813.00
2022-08-26T17:49:39.279Z,100819.03
2022-08-26T17:52:29.547Z,100812.34
2022-08-26T17:55:25.107Z,100819.13
2022-08-26T17:58:15.320Z,100806.28
2022-08-26T18:01:07.324Z,100806.28
2022-08-26T18:04:00.458Z,100800.91
2022-08-26T18:06:50.598Z,100796.91
2022-08-26T18:09:40.589Z,100781.72
2022-08-26T18:12:30.331Z,100779.88
2022-08-26T18:15:20.359Z,100801.47
2022-08-26T18:18:17.422Z,100800.59
2022-08-26T18:21:17.341Z,100789.81
2022-08-26T18:24:13.358Z,100796.44
2022-08-26T18:27:03.612Z,100792.72
2022-08-26T18:29:53.122Z,100787.69
2022-08-26T18:32:42.987Z,100785.53
2022-08-26T18:35:32.711Z,100774.09
2022-08-26T18:38:22.503Z,100763.50
2022-08-26T18:41:12.715Z,100763.97
2022-08-26T18:44:02.420Z,100762.66
2022-08-26T18:46:52.804Z,100759.31
2022-08-26T18:49:44.197Z,100755.16
2022-08-26T18:52:34.428Z,100759.69
2022-08-26T18:55:24.369Z,100760.06
2022-08-26T18:58:14.305Z,100748.25
2022-08-26T19:01:04.234Z,100745.75
2022-08-26T19:03:54.270Z,100741.47
2022-08-26T19:06:44.360Z,100742.56
2022-08-26T19:09:35.167Z,100738.84
2022-08-26T19:12:27.140Z,100729.66
2022-08-26T19:15:17.023Z,100732.06
2022-08-26T19:18:08.847Z,100716.38
2022-08-26T19:20:58.724Z,100718.03
2022-08-26T19:23:48.856Z,100725.50
2022-08-26T19:26:40.232Z,100717.78
2022-08-26T19:29:33.909Z,100714.22
2022-08-26T19:32:25.627Z,100714.56
2022-08-26T19:35:16.327Z,100722.84
2022-08-26T19:38:06.405Z,100719.50
2022-08-26T19:40:55.686Z,100735.66
2022-08-26T19:43:46.173Z,100739.75
2022-08-26T19:49:31.992Z,100733.06
2022-08-26T19:52:30.037Z,100738.44
2022-08-26T19:55:21.320Z,100731.38
2022-08-26T19:58:12.841Z,100737.78
2022-08-26T20:01:03.158Z,100728.47
2022-08-26T20:03:53.066Z,100734.25
2022-08-26T20:06:42.842Z,100735.09
2022-08-26T20:09:33.972Z,100742.97
2022-08-26T20:12:24.188Z,100743.34
2022-08-26T20:15:15.807Z,100740.47
2022-08-26T20:18:05.178Z,100741.66
2022-08-26T20:21:13.437Z,100738.16
2022-08-26T20:24:13.396Z,100735.47
2022-08-26T20:27:07.513Z,100735.16
2022-08-26T20:29:58.675Z,100738.69
2022-08-26T20:32:48.041Z,100746.09
2022-08-26T20:35:38.242Z,100741.56
2022-08-26T20:38:28.055Z,100753.00
2022-08-26T20:41:18.694Z,100750.66
2022-08-26T20:44:08.694Z,100758.75
2022-08-26T20:47:00.506Z,100772.69
2022-08-26T20:49:52.331Z,100773.91
2022-08-26T20:52:44.737Z,100779.28
2022-08-26T20:55:35.147Z,100782.63
2022-08-26T20:58:27.743Z,100790.06
2022-08-26T21:01:23.878Z,100791.44
2022-08-26T21:04:17.099Z,100789.56
2022-08-26T21:07:06.919Z,100792.09
2022-08-26T21:09:56.576Z,100791.25
2022-08-26T21:12:49.554Z,100794.50
2022-08-26T21:15:39.811Z,100811.69
2022-08-26T21:18:29.510Z,100806.28
2022-08-26T21:21:19.177Z,100801.91
2022-08-26T21:24:15.444Z,100795.69
2022-08-26T21:27:05.278Z,100791.16
2022-08-26T21:29:55.313Z,100796.91
2022-08-26T21:32:45.091Z,100793.19
2022-08-26T21:35:34.851Z,100781.69
2022-08-26T21:38:24.911Z,100785.75
2022-08-26T21:41:21.752Z,100789.94
2022-08-26T21:44:16.515Z,100787.06
2022-08-26T21:47:06.301Z,100787.78
2022-08-26T21:49:55.972Z,100786.59
2022-08-26T21:52:45.553Z,100782.03
2022-08-26T21:55:37.859Z,100793.66
2022-08-26T21:58:27.532Z,100789.47
2022-08-26T22:01:24.540Z,100786.13
2022-08-26T22:04:15.055Z,100781.56
2022-08-26T22:07:06.364Z,100783.44
2022-08-26T22:09:56.444Z,100777.03
2022-08-26T22:12:45.893Z,100776.00
2022-08-26T22:15:41.796Z,100779.06
2022-08-26T22:18:32.215Z,100786.13
2022-08-26T22:21:25.710Z,100792.88
2022-08-26T22:24:15.995Z,100796.53
2022-08-26T22:27:06.348Z,100804.97
2022-08-26T22:29:56.228Z,100815.56
2022-08-26T22:32:47.024Z,100814.91
2022-08-26T22:35:42.230Z,100811.38
2022-08-26T22:38:31.621Z,100816.28
2022-08-26T22:41:21.399Z,100810.41
2022-08-26T22:44:11.964Z,100800.97
2022-08-26T22:47:01.697Z,100805.84
2022-08-26T22:49:52.613Z,100802.50
2022-08-26T22:52:42.732Z,100809.56
2022-08-26T22:55:32.940Z,100810.78
2022-08-26T22:58:23.146Z,100826.94
2022-08-26T23:01:20.869Z,100827.94
2022-08-26T23:04:12.586Z,100832.66
2022-08-26T23:07:02.563Z,100829.78
2022-08-26T23:09:52.771Z,100824.25
2022-08-26T23:12:43.272Z,100828.31
2022-08-26T23:15:33.604Z,100838.06
2022-08-26T23:18:23.458Z,100835.66
2022-08-26T23:21:14.012Z,100846.13
2022-08-26T23:24:03.822Z,100856.25
2022-08-26T23:26:53.524Z,100853.88
2022-08-26T23:29:43.878Z,100857.94
2022-08-26T23:32:34.233Z,100862.28
2022-08-26T23:35:24.282Z,100863.78
2022-08-26T23:38:15.393Z,100859.59
2022-08-26T23:41:07.594Z,100866.66
2022-08-26T23:44:01.604Z,100874.88
2022-08-26T23:46:53.003Z,100877.69
2022-08-26T23:49:43.963Z,100877.81
2022-08-26T23:52:52.970Z,100867.91
2022-08-26T23:55:45.953Z,100862.16
2022-08-26T23:58:36.379Z,100876.75
